createdAt,value
2018-04-16T00:00:12.538Z,16.30
2018-04-16T00:01:12.490Z,16.50
2018-04-16T00:02:12.490Z,15.80
2018-04-16T00:03:12.494Z,16.60
2018-04-16T00:04:12.495Z,17.40
2018-04-16T00:05:13.144Z,19.30
2018-04-16T00:06:12.494Z,18.60
2018-04-16T00:07:12.495Z,18.20
2018-04-16T00:08:12.501Z,18.40
2018-04-16T00:09:12.498Z,19.70
2018-04-16T00:10:12.918Z,21.10
2018-04-16T00:11:12.499Z,20.80
2018-04-16T00:12:12.507Z,21.80
2018-04-16T00:13:12.504Z,21.20
2018-04-16T00:14:12.506Z,21.90
2018-04-16T00:15:12.549Z,21.50
2018-04-16T00:16:12.508Z,21.10
2018-04-16T00:17:12.509Z,22.70
2018-04-16T00:18:12.508Z,20.50
2018-04-16T00:19:12.512Z,18.70
2018-04-16T00:20:12.612Z,21.10
2018-04-16T00:21:12.513Z,21.60
2018-04-16T00:22:13.459Z,20.70
2018-04-16T00:23:12.520Z,19.50
2018-04-16T00:24:12.516Z,21.00
2018-04-16T00:25:12.580Z,20.60
2018-04-16T00:26:12.516Z,18.70
2018-04-16T00:27:12.515Z,22.10
2018-04-16T00:28:12.520Z,22.00
2018-04-16T00:29:12.520Z,24.00
2018-04-16T00:30:12.618Z,22.80
2018-04-16T00:31:12.522Z,22.50
2018-04-16T00:32:12.528Z,22.50
2018-04-16T00:33:12.525Z,22.00
2018-04-16T00:34:12.528Z,22.90
2018-04-16T00:35:12.581Z,23.60
2018-04-16T00:36:12.529Z,24.70
2018-04-16T00:37:12.529Z,24.70
2018-04-16T00:38:12.532Z,22.60
2018-04-16T00:39:12.545Z,20.50
2018-04-16T00:40:12.862Z,22.80
2018-04-16T00:41:12.535Z,27.60
2018-04-16T00:42:12.545Z,30.10
2018-04-16T00:43:12.537Z,30.90
2018-04-16T00:44:12.539Z,31.20
2018-04-16T00:45:13.401Z,31.30
2018-04-16T00:46:12.533Z,32.20
2018-04-16T00:47:12.561Z,32.90
2018-04-16T00:48:12.540Z,33.90
2018-04-16T00:49:12.542Z,32.10
2018-04-16T00:50:12.621Z,31.90
2018-04-16T00:51:12.554Z,32.00
2018-04-16T00:52:12.546Z,33.60
2018-04-16T00:53:13.014Z,30.60
2018-04-16T00:54:12.546Z,32.10
2018-04-16T00:55:12.590Z,32.70
2018-04-16T00:56:12.551Z,33.90
2018-04-16T00:57:12.555Z,34.20
2018-04-16T00:58:12.551Z,35.10
2018-04-16T00:59:12.554Z,41.00
2018-04-16T01:00:12.643Z,39.70
2018-04-16T01:01:13.204Z,38.60
2018-04-16T01:02:12.560Z,38.10
2018-04-16T01:03:12.555Z,39.40
2018-04-16T01:04:12.582Z,40.50
2018-04-16T01:05:14.475Z,39.60
2018-04-16T01:06:12.559Z,40.30
2018-04-16T01:07:12.560Z,42.10
2018-04-16T01:08:12.907Z,41.30
2018-04-16T01:09:12.563Z,40.50
2018-04-16T01:10:12.683Z,41.10
2018-04-16T01:11:12.567Z,42.00
2018-04-16T01:12:12.561Z,44.20
2018-04-16T01:13:12.564Z,44.10
2018-04-16T01:14:12.569Z,46.70
2018-04-16T01:15:12.864Z,50.50
2018-04-16T01:16:12.559Z,47.30
2018-04-16T01:17:12.569Z,49.60
2018-04-16T01:18:12.574Z,47.40
2018-04-16T01:19:12.609Z,49.40
2018-04-16T01:20:12.572Z,49.00
2018-04-16T01:21:12.572Z,46.00
2018-04-16T01:22:12.593Z,47.60
2018-04-16T01:23:12.579Z,48.10
2018-04-16T01:24:14.369Z,42.30
2018-04-16T01:25:12.578Z,41.80
2018-04-16T01:26:12.574Z,41.00
2018-04-16T01:27:12.579Z,43.40
2018-04-16T01:28:12.585Z,44.90
2018-04-16T01:29:34.387Z,43.40
2018-04-16T01:30:12.584Z,40.80
2018-04-16T01:31:12.583Z,33.20
2018-04-16T01:32:12.600Z,37.60
2018-04-16T01:33:12.584Z,39.40
2018-04-16T01:34:17.892Z,43.00
2018-04-16T01:35:12.592Z,45.50
2018-04-16T01:36:12.609Z,48.60
2018-04-16T01:37:12.589Z,51.30
2018-04-16T01:38:12.591Z,52.20
2018-04-16T01:39:35.841Z,49.90
2018-04-16T01:40:12.591Z,52.10
2018-04-16T01:41:12.595Z,49.60
2018-04-16T01:42:12.593Z,53.20
2018-04-16T01:43:12.594Z,56.10
2018-04-16T01:44:12.594Z,56.40
2018-04-16T01:45:14.459Z,58.00
2018-04-16T01:46:12.621Z,56.60
2018-04-16T01:47:12.599Z,58.20
2018-04-16T01:48:12.601Z,59.70
2018-04-16T01:49:12.680Z,62.20
2018-04-16T01:50:47.871Z,61.10
2018-04-16T01:51:12.599Z,60.20
2018-04-16T01:52:12.603Z,59.60
2018-04-16T01:53:12.602Z,56.90
2018-04-16T01:54:12.603Z,59.10
2018-04-16T01:55:15.879Z,59.20
2018-04-16T01:56:12.604Z,59.80
2018-04-16T01:57:12.600Z,59.40
2018-04-16T01:58:12.605Z,60.90
2018-04-16T01:59:12.607Z,61.20
2018-04-16T02:00:23.368Z,63.00
2018-04-16T02:01:12.608Z,65.60
2018-04-16T02:02:12.607Z,67.10
2018-04-16T02:03:12.610Z,69.10
2018-04-16T02:04:12.621Z,70.60
2018-04-16T02:05:12.754Z,70.00
2018-04-16T02:06:12.612Z,70.10
2018-04-16T02:07:12.620Z,68.90
2018-04-16T02:08:12.614Z,70.70
2018-04-16T02:09:12.615Z,69.70
2018-04-16T02:10:12.612Z,67.20
2018-04-16T02:11:12.883Z,67.90
2018-04-16T02:12:12.613Z,66.10
2018-04-16T02:13:12.612Z,67.00
2018-04-16T02:14:12.615Z,63.40
2018-04-16T02:15:12.616Z,67.40
2018-04-16T02:16:12.676Z,66.90
2018-04-16T02:17:12.624Z,66.30
2018-04-16T02:18:12.617Z,66.30
2018-04-16T02:19:12.625Z,66.30
2018-04-16T02:20:12.620Z,67.80
2018-04-16T02:21:23.420Z,66.90
2018-04-16T02:22:12.621Z,62.00
2018-04-16T02:23:12.620Z,63.20
2018-04-16T02:24:12.642Z,67.10
2018-04-16T02:25:13.718Z,67.80
2018-04-16T02:26:12.620Z,65.20
2018-04-16T02:27:12.626Z,64.50
2018-04-16T02:28:12.626Z,64.40
2018-04-16T02:29:12.620Z,64.80
2018-04-16T02:30:12.626Z,64.20
2018-04-16T02:31:12.665Z,68.50
2018-04-16T02:32:12.626Z,69.40
2018-04-16T02:33:12.627Z,67.70
2018-04-16T02:34:12.636Z,68.50
2018-04-16T02:35:12.627Z,66.80
2018-04-16T02:36:13.622Z,70.90
2018-04-16T02:37:12.626Z,76.00
2018-04-16T02:38:12.628Z,66.80
2018-04-16T02:39:12.631Z,63.10
2018-04-16T02:40:12.637Z,67.70
2018-04-16T02:45:49.173Z,65.20
2018-04-16T02:46:47.579Z,64.80
2018-04-16T02:47:47.577Z,67.10
2018-04-16T02:48:47.597Z,67.70
2018-04-16T02:49:47.580Z,68.60
2018-04-16T02:50:47.580Z,73.10
2018-04-16T03:36:13.386Z,75.40
2018-04-16T03:37:06.061Z,75.30
2018-04-16T08:35:19.135Z,58.90
2018-04-16T08:35:54.984Z,56.50
2018-04-16T08:36:54.982Z,55.10
2018-04-16T08:37:54.998Z,52.50
2018-04-16T08:38:54.989Z,54.40
2018-04-16T08:39:54.999Z,55.80
2018-04-16T08:51:47.338Z,49.80
2018-04-16T08:52:37.447Z,47.30
2018-04-16T08:53:37.215Z,45.30
2018-04-16T08:54:37.228Z,45.40
2018-04-16T09:03:36.509Z,45.40
2018-04-16T09:04:15.281Z,46.60
2018-04-16T09:05:15.330Z,47.40
2018-04-16T09:06:15.328Z,46.50
2018-04-16T09:07:15.309Z,44.00
2018-04-16T09:08:15.300Z,43.80
2018-04-16T09:09:16.208Z,44.00
2018-04-16T09:12:13.521Z,40.70
2018-04-16T09:12:47.319Z,39.50
2018-04-16T09:13:47.322Z,40.20
2018-04-16T09:14:51.484Z,40.60
2018-04-16T09:15:47.329Z,43.20
2018-04-16T09:16:47.336Z,42.90
2018-04-16T09:17:47.333Z,43.40
2018-04-16T09:18:47.336Z,42.50
2018-04-16T09:20:01.512Z,43.50
2018-04-16T09:20:47.341Z,42.20
2018-04-16T09:21:47.350Z,42.20
2018-04-16T09:22:47.345Z,41.30
2018-04-16T09:23:47.353Z,41.20
2018-04-16T09:24:58.056Z,41.30
2018-04-16T09:25:47.363Z,39.60
2018-04-16T09:26:47.359Z,41.90
2018-04-16T09:27:47.374Z,40.60
2018-04-16T09:28:47.367Z,40.80
2018-04-16T09:29:47.478Z,39.70
2018-04-16T09:30:47.395Z,39.40
2018-04-16T09:31:47.377Z,40.60
2018-04-16T09:32:47.384Z,38.90
2018-04-16T09:33:47.389Z,37.40
2018-04-16T09:35:05.541Z,37.40
2018-04-16T09:35:47.393Z,37.00
2018-04-16T09:36:47.397Z,36.30
2018-04-16T09:37:47.397Z,37.30
2018-04-16T09:38:47.400Z,36.50
2018-04-16T09:39:47.456Z,37.10
2018-04-16T09:40:47.410Z,36.60
2018-04-16T09:41:47.414Z,37.50
2018-04-16T09:42:47.415Z,37.90
2018-04-16T09:43:47.421Z,39.20
2018-04-16T09:45:05.525Z,38.00
2018-04-16T09:45:48.111Z,37.00
2018-04-16T09:46:47.428Z,37.10
2018-04-16T09:47:47.433Z,38.40
2018-04-16T09:48:47.435Z,37.30
2018-04-16T09:49:47.443Z,35.40
2018-04-16T09:50:47.520Z,34.30
2018-04-16T09:51:47.495Z,34.70
2018-04-16T09:52:47.450Z,34.40
2018-04-16T09:53:47.461Z,34.20
2018-04-16T09:54:47.458Z,34.30
2018-04-16T09:55:47.512Z,35.00
2018-04-16T09:56:47.464Z,33.60
2018-04-16T09:57:47.474Z,35.40
2018-04-16T09:58:47.489Z,35.80
2018-04-16T09:59:50.675Z,36.60
2018-04-16T10:00:53.369Z,36.20
2018-04-16T10:01:47.504Z,36.60
2018-04-16T10:02:48.400Z,37.50
2018-04-16T10:03:48.694Z,36.40
2018-04-16T10:06:30.263Z,35.40
2018-04-16T10:07:19.990Z,37.70
2018-04-16T10:08:19.995Z,35.20
2018-04-16T10:10:59.565Z,35.90
2018-04-16T10:11:52.996Z,35.60
2018-04-16T10:12:54.066Z,36.20
2018-04-16T10:13:53.346Z,38.30
2018-04-16T10:15:03.405Z,35.50
2018-04-16T10:15:52.674Z,38.10
2018-04-16T10:16:53.215Z,36.90
2018-04-16T10:17:52.674Z,36.00
2018-04-16T10:18:53.714Z,35.40
2018-04-16T10:19:52.628Z,36.60
2018-04-16T10:20:52.791Z,37.10
2018-04-16T10:21:52.660Z,34.70
2018-04-16T10:22:52.667Z,35.60
2018-04-16T10:23:52.683Z,36.20
2018-04-16T10:24:52.989Z,34.60
2018-04-16T10:25:53.099Z,35.50
2018-04-16T10:26:53.241Z,33.30
2018-04-16T10:27:53.470Z,34.00
2018-04-16T10:28:52.600Z,34.60
2018-04-16T10:30:06.770Z,34.70
2018-04-16T10:30:52.610Z,33.30
2018-04-16T10:31:52.615Z,32.60
2018-04-16T10:32:52.615Z,31.80
2018-04-16T10:33:52.623Z,30.90
2018-04-16T10:34:52.618Z,29.60
2018-04-16T10:35:52.788Z,29.70
2018-04-16T10:36:52.624Z,32.50
2018-04-16T10:37:52.624Z,33.00
2018-04-16T10:38:52.642Z,33.00
2018-04-16T10:39:52.637Z,32.50
2018-04-16T10:40:52.751Z,31.10
2018-04-16T10:41:52.648Z,29.50
2018-04-16T10:42:52.648Z,28.30
2018-04-16T10:43:52.648Z,29.60
2018-04-16T10:44:52.652Z,31.70
2018-04-16T10:46:10.750Z,29.30
2018-04-16T10:46:52.664Z,29.80
2018-04-16T10:47:52.663Z,29.10
2018-04-16T10:48:52.674Z,29.50
2018-04-16T10:49:52.676Z,29.00
2018-04-16T10:51:06.782Z,30.00
2018-04-16T10:51:52.685Z,27.70
2018-04-16T10:52:52.847Z,29.40
2018-04-16T10:53:52.692Z,28.30
2018-04-16T10:54:52.695Z,27.10
2018-04-16T10:56:03.261Z,24.80
2018-04-16T10:56:52.704Z,26.30
2018-04-16T10:57:52.717Z,26.10
2018-04-16T10:58:52.716Z,25.40
2018-04-16T10:59:52.720Z,24.30
2018-04-16T11:00:52.801Z,24.60
2018-04-16T11:01:52.726Z,26.00
2018-04-16T11:02:52.732Z,24.30
2018-04-16T11:03:52.737Z,24.50
2018-04-16T11:04:52.746Z,23.70
2018-04-16T11:05:52.800Z,24.10
2018-04-16T11:06:52.748Z,24.30
2018-04-16T11:07:52.754Z,23.90
2018-04-16T11:08:52.758Z,24.60
2018-04-16T11:09:52.765Z,23.70
2018-04-16T11:10:52.835Z,24.50
2018-04-16T11:11:52.824Z,24.10
2018-04-16T11:12:52.777Z,25.10
2018-04-16T11:13:52.782Z,24.90
2018-04-16T11:14:52.787Z,25.20
2018-04-16T11:15:53.748Z,23.60
2018-04-16T11:16:52.797Z,24.50
2018-04-16T11:17:52.804Z,24.40
2018-04-16T11:18:52.812Z,24.50
2018-04-16T11:19:52.812Z,24.80
2018-04-16T11:20:52.856Z,23.10
2018-04-16T11:21:52.824Z,24.20
2018-04-16T11:22:52.828Z,24.30
2018-04-16T11:23:52.834Z,24.10
2018-04-16T11:24:52.837Z,23.50
2018-04-16T11:25:53.303Z,24.20
2018-04-16T11:26:52.845Z,23.80
2018-04-16T11:27:52.849Z,24.00
2018-04-16T11:28:53.602Z,24.20
2018-04-16T11:29:52.857Z,24.50
2018-04-16T11:31:07.690Z,25.60
2018-04-16T11:31:52.872Z,25.20
2018-04-16T11:32:52.877Z,26.40
2018-04-16T11:33:52.883Z,25.50
2018-04-16T11:34:52.882Z,26.70
2018-04-16T11:35:52.887Z,28.10
2018-04-16T11:37:11.259Z,28.50
2018-04-16T11:37:52.896Z,28.60
2018-04-16T11:38:52.916Z,30.50
2018-04-16T11:39:52.906Z,30.10
2018-04-16T11:40:58.261Z,29.90
2018-04-16T11:41:52.911Z,30.70
2018-04-16T11:42:52.913Z,31.70
2018-04-16T11:43:52.922Z,33.40
2018-04-16T11:44:52.923Z,31.40
2018-04-16T11:45:54.769Z,28.90
2018-04-16T11:46:52.929Z,32.50
2018-04-16T11:47:52.934Z,29.70
2018-04-16T11:48:52.935Z,29.80
2018-04-16T11:49:52.938Z,32.20
2018-04-16T11:50:53.912Z,31.80
2018-04-16T11:51:52.981Z,29.80
2018-04-16T11:52:52.950Z,30.60
2018-04-16T11:53:52.950Z,32.40
2018-04-16T11:54:52.955Z,32.10
2018-04-16T11:55:52.978Z,30.20
2018-04-16T11:56:54.716Z,32.00
2018-04-16T11:57:52.969Z,31.30
2018-04-16T11:58:53.715Z,31.90
2018-04-16T11:59:52.975Z,30.90
2018-04-16T12:00:52.999Z,30.80
2018-04-16T12:01:54.761Z,31.70
2018-04-16T12:02:52.981Z,30.70
2018-04-16T12:03:52.981Z,29.80
2018-04-16T12:04:52.983Z,31.80
2018-04-16T12:05:52.984Z,33.40
2018-04-16T12:06:53.022Z,34.80
2018-04-16T12:07:52.988Z,36.40
2018-04-16T12:08:53.887Z,35.20
2018-04-16T12:09:52.991Z,34.70
2018-04-16T12:10:52.996Z,31.90
2018-04-16T12:11:53.798Z,34.40
2018-04-16T12:12:53.005Z,35.50
2018-04-16T12:13:53.002Z,36.00
2018-04-16T12:14:53.006Z,35.60
2018-04-16T12:15:53.005Z,36.20
2018-04-16T12:16:54.763Z,32.30
2018-04-16T12:17:53.058Z,34.50
2018-04-16T12:18:53.015Z,34.60
2018-04-16T12:19:53.015Z,36.00
2018-04-16T12:21:32.270Z,37.20
2018-04-16T12:21:53.448Z,35.50
2018-04-16T12:22:53.032Z,36.20
2018-04-16T12:23:53.030Z,37.30
2018-04-16T12:24:53.074Z,36.80
2018-04-16T12:29:02.859Z,38.60
2018-04-16T12:29:57.447Z,38.90
2018-04-16T12:30:57.853Z,35.40
2018-04-16T12:31:57.481Z,35.70
2018-04-16T12:32:57.487Z,34.70
2018-04-16T12:33:57.451Z,36.60
2018-04-16T12:34:57.457Z,36.30
2018-04-16T12:35:57.461Z,36.90
2018-04-16T12:37:26.345Z,35.20
2018-04-16T12:37:57.510Z,36.40
2018-04-16T12:38:57.464Z,36.40
2018-04-16T12:39:57.469Z,40.60
2018-04-16T12:59:45.073Z,42.00
2018-04-16T13:00:40.881Z,41.90
2018-04-16T13:01:20.652Z,44.40
2018-04-16T13:02:19.880Z,45.30
2018-04-16T13:03:19.883Z,45.80
2018-04-16T13:04:19.881Z,47.70
2018-04-16T13:19:07.625Z,38.90
2018-04-16T13:20:13.307Z,35.50
2018-04-16T13:21:07.591Z,36.30
2018-04-16T13:22:07.593Z,38.70
2018-04-16T13:23:07.598Z,38.70
2018-04-16T13:24:07.597Z,39.20
2018-04-16T13:25:12.783Z,36.50
2018-04-16T13:26:07.602Z,36.20
2018-04-16T13:27:07.607Z,37.60
2018-04-16T13:28:07.607Z,37.80
2018-04-16T13:29:07.609Z,38.10
2018-04-16T13:30:31.787Z,36.90
2018-04-16T13:31:07.627Z,32.50
2018-04-16T13:32:07.620Z,34.00
2018-04-16T13:33:07.621Z,34.10
2018-04-16T13:34:07.619Z,32.60
2018-04-16T13:35:07.629Z,32.40
2018-04-16T13:36:07.781Z,32.80
2018-04-16T13:37:07.630Z,33.50
2018-04-16T13:38:07.629Z,33.80
2018-04-16T13:39:07.709Z,35.80
2018-04-16T13:40:07.634Z,35.60
2018-04-16T13:41:25.779Z,33.80
2018-04-16T13:42:07.637Z,33.80
2018-04-16T13:43:07.690Z,31.90
2018-04-16T13:44:07.644Z,32.50
2018-04-16T13:45:07.712Z,31.00
2018-04-16T13:46:07.647Z,31.80
2018-04-16T13:47:07.648Z,35.40
2018-04-16T13:48:07.653Z,30.90
2018-04-16T13:49:07.659Z,32.90
2018-04-16T13:50:07.660Z,31.90
2018-04-16T13:51:07.898Z,32.40
2018-04-16T13:52:08.222Z,31.90
2018-04-16T13:53:07.665Z,31.10
2018-04-16T13:54:07.666Z,33.60
2018-04-16T13:55:07.849Z,31.30
2018-04-16T13:56:07.670Z,31.30
2018-04-16T13:57:36.302Z,31.80
2018-04-16T13:58:07.683Z,31.20
2018-04-16T13:59:07.738Z,31.50
2018-04-16T14:00:07.689Z,31.70
2018-04-16T14:01:07.686Z,31.60
2018-04-16T14:02:07.780Z,31.30
2018-04-16T14:03:07.691Z,31.30
2018-04-16T14:04:07.694Z,32.00
2018-04-16T14:05:07.695Z,31.80
2018-04-16T14:06:07.836Z,32.00
2018-04-16T14:07:07.700Z,32.30
2018-04-16T14:08:07.705Z,33.20
2018-04-16T14:09:07.708Z,32.50
2018-04-16T14:10:08.242Z,32.80
2018-04-16T14:11:21.804Z,30.80
2018-04-16T14:12:07.723Z,29.60
2018-04-16T14:13:07.718Z,31.30
2018-04-16T14:14:07.720Z,31.50
2018-04-16T14:15:07.727Z,31.50
2018-04-16T14:16:07.791Z,31.80
2018-04-16T14:17:07.728Z,30.10
2018-04-16T14:18:07.729Z,31.10
2018-04-16T14:19:07.767Z,31.00
2018-04-16T14:20:07.734Z,32.60
2018-04-16T14:21:07.743Z,31.80
2018-04-16T14:22:07.796Z,33.60
2018-04-16T14:23:07.744Z,30.70
2018-04-16T14:24:07.743Z,30.30
2018-04-16T14:25:07.748Z,30.90
2018-04-16T14:26:08.740Z,31.30
2018-04-16T14:27:07.798Z,31.20
2018-04-16T14:28:07.797Z,31.80
2018-04-16T14:29:07.760Z,31.30
2018-04-16T14:30:07.763Z,30.80
2018-04-16T14:31:07.766Z,31.00
2018-04-16T14:32:07.840Z,31.40
2018-04-16T14:33:07.772Z,30.30
2018-04-16T14:34:07.773Z,29.90
2018-04-16T14:35:07.773Z,31.70
2018-04-16T14:36:07.773Z,31.20
2018-04-16T14:37:07.888Z,31.00
2018-04-16T14:38:07.791Z,32.90
2018-04-16T14:39:07.787Z,31.10
2018-04-16T14:40:07.787Z,31.40
2018-04-16T14:41:07.802Z,32.90
2018-04-16T14:42:11.312Z,32.00
2018-04-16T14:43:07.791Z,33.20
2018-04-16T14:44:08.797Z,33.70
2018-04-16T14:45:07.798Z,33.30
2018-04-16T14:46:07.802Z,33.90
2018-04-16T14:47:07.863Z,34.00
2018-04-16T14:48:07.807Z,33.80
2018-04-16T14:49:07.811Z,33.50
2018-04-16T14:50:07.831Z,33.10
2018-04-16T14:51:07.813Z,32.80
2018-04-16T14:52:07.857Z,31.90
2018-04-16T14:53:07.817Z,33.60
2018-04-16T14:54:08.714Z,32.70
2018-04-16T14:55:07.823Z,32.90
2018-04-16T14:56:07.828Z,32.20
2018-04-16T14:57:07.929Z,32.90
2018-04-16T14:58:07.889Z,36.80
2018-04-16T14:59:07.839Z,36.90
2018-04-16T15:00:07.837Z,37.10
2018-04-16T15:01:07.853Z,36.50
2018-04-16T15:02:07.891Z,34.10
2018-04-16T15:03:07.852Z,35.80
2018-04-16T15:04:07.846Z,35.60
2018-04-16T15:05:07.849Z,32.80
2018-04-16T15:06:07.855Z,32.30
2018-04-16T15:07:08.844Z,32.90
2018-04-16T15:08:08.029Z,32.00
2018-04-16T15:09:07.862Z,32.30
2018-04-16T15:10:07.861Z,33.20
2018-04-16T15:11:07.866Z,33.10
2018-04-16T15:12:07.871Z,33.70
2018-04-16T15:13:26.311Z,32.20
2018-04-16T15:14:07.873Z,31.80
2018-04-16T15:15:07.876Z,31.50
2018-04-16T15:16:07.881Z,32.20
2018-04-16T15:17:07.881Z,32.90
2018-04-16T15:18:08.066Z,31.80
2018-04-16T15:19:07.893Z,31.70
2018-04-16T15:20:07.894Z,44.70
2018-04-16T15:21:07.901Z,48.30
2018-04-16T15:22:07.895Z,37.20
2018-04-16T15:23:08.069Z,36.90
2018-04-16T15:24:07.902Z,47.20
2018-04-16T15:25:07.925Z,41.10
2018-04-16T15:26:07.923Z,48.90
2018-04-16T15:27:07.938Z,58.50
2018-04-16T15:28:18.814Z,46.10
2018-04-16T15:29:07.916Z,36.20
2018-04-16T15:30:07.921Z,42.50
2018-04-16T15:31:07.921Z,51.60
2018-04-16T15:32:07.922Z,39.80
2018-04-16T15:33:07.965Z,40.00
2018-04-16T15:34:07.925Z,36.60
2018-04-16T15:35:07.927Z,38.20
2018-04-16T15:36:07.934Z,60.70
2018-04-16T15:37:07.933Z,43.40
2018-04-16T15:38:13.317Z,40.60
2018-04-16T15:39:07.939Z,46.40
2018-04-16T15:40:07.940Z,36.20
2018-04-16T15:41:08.081Z,41.70
2018-04-16T15:42:07.950Z,38.00
2018-04-16T15:43:07.990Z,38.10
2018-04-16T15:44:07.954Z,41.70
2018-04-16T15:45:07.959Z,42.90
2018-04-16T15:46:07.952Z,39.60
2018-04-16T15:47:07.957Z,37.70
2018-04-16T15:48:08.014Z,41.00
2018-04-16T15:49:07.961Z,41.30
2018-04-16T15:50:07.966Z,41.20
2018-04-16T15:51:07.964Z,34.00
2018-04-16T15:52:07.965Z,35.50
2018-04-16T15:53:08.013Z,40.50
2018-04-16T15:54:07.973Z,38.70
2018-04-16T15:55:07.974Z,40.50
2018-04-16T15:56:07.982Z,41.10
2018-04-16T15:57:07.979Z,46.70
2018-04-16T15:58:08.070Z,50.90
2018-04-16T15:59:07.984Z,38.30
2018-04-16T16:00:07.988Z,40.90
2018-04-16T16:01:07.987Z,33.80
2018-04-16T16:02:07.987Z,36.50
2018-04-16T16:03:08.467Z,34.20
2018-04-16T16:04:08.040Z,35.50
2018-04-16T16:05:08.018Z,37.30
2018-04-16T16:06:07.999Z,37.50
2018-04-16T16:07:08.005Z,33.20
2018-04-16T16:08:08.001Z,34.40
2018-04-16T16:09:08.047Z,33.00
2018-04-16T16:10:08.006Z,32.60
2018-04-16T16:11:08.009Z,32.30
2018-04-16T16:12:08.940Z,30.70
2018-04-16T16:13:08.016Z,31.00
2018-04-16T16:14:08.642Z,32.40
2018-04-16T16:15:08.054Z,31.40
2018-04-16T16:16:08.359Z,28.90
2018-04-16T16:17:08.066Z,30.30
2018-04-16T16:18:08.052Z,29.20
2018-04-16T16:19:08.796Z,28.80
2018-04-16T16:20:08.055Z,30.10
2018-04-16T16:21:08.043Z,29.30
2018-04-16T16:22:09.970Z,33.50
2018-04-16T16:23:08.767Z,32.10
2018-04-16T16:24:08.038Z,29.90
2018-04-16T16:25:08.087Z,27.70
2018-04-16T16:26:08.038Z,29.00
2018-04-16T16:27:08.050Z,26.90
2018-04-16T16:28:08.041Z,26.70
2018-04-16T16:29:08.049Z,26.10
2018-04-16T16:30:08.877Z,27.20
2018-04-16T16:31:08.141Z,27.10
2018-04-16T16:32:08.053Z,26.60
2018-04-16T16:33:08.055Z,26.20
2018-04-16T16:34:08.105Z,24.90
2018-04-16T16:35:08.054Z,25.00
2018-04-16T16:36:08.966Z,26.00
2018-04-16T16:37:08.064Z,26.40
2018-04-16T16:38:08.062Z,25.60
2018-04-16T16:39:08.828Z,26.50
2018-04-16T16:40:08.073Z,26.00
2018-04-16T16:41:08.761Z,28.90
2018-04-16T16:42:08.072Z,37.60
2018-04-16T16:43:08.076Z,36.10
2018-04-16T16:44:08.131Z,33.50
2018-04-16T16:45:08.075Z,28.80
2018-04-16T16:46:08.081Z,28.70
2018-04-16T16:47:08.085Z,28.00
2018-04-16T16:48:08.086Z,26.80
2018-04-16T16:49:08.093Z,27.20
2018-04-16T16:50:08.350Z,28.60
2018-04-16T16:51:08.091Z,28.80
2018-04-16T16:52:08.098Z,27.60
2018-04-16T16:53:08.100Z,29.50
2018-04-16T16:54:08.156Z,29.60
2018-04-16T16:55:08.137Z,32.20
2018-04-16T16:56:08.103Z,32.20
2018-04-16T16:57:08.116Z,33.70
2018-04-16T16:58:08.111Z,31.90
2018-04-16T16:59:08.110Z,32.80
2018-04-16T17:00:08.165Z,31.60
2018-04-16T17:01:08.118Z,30.80
2018-04-16T17:02:08.127Z,30.40
2018-04-16T17:03:08.121Z,31.40
2018-04-16T17:04:08.126Z,30.50
2018-04-16T17:05:08.211Z,31.50
2018-04-16T17:06:08.133Z,30.20
2018-04-16T17:07:08.163Z,30.60
2018-04-16T17:08:08.148Z,32.30
2018-04-16T17:09:08.132Z,37.00
2018-04-16T17:10:08.183Z,65.20
2018-04-16T17:11:08.133Z,70.30
2018-04-16T17:12:08.144Z,77.50
2018-04-16T17:13:08.139Z,59.20
2018-04-16T17:14:08.141Z,77.50
2018-04-16T17:15:08.882Z,59.40
2018-04-16T17:16:08.149Z,42.20
2018-04-16T17:17:08.149Z,36.70
2018-04-16T17:18:08.149Z,35.90
2018-04-16T17:19:08.151Z,34.00
2018-04-16T17:20:08.232Z,35.70
2018-04-16T17:21:08.923Z,34.00
2018-04-16T17:22:08.155Z,35.30
2018-04-16T17:23:08.161Z,42.80
2018-04-16T17:24:08.176Z,48.40
2018-04-16T17:25:08.167Z,34.80
2018-04-16T17:26:08.204Z,45.00
2018-04-16T17:27:08.166Z,49.90
2018-04-16T17:28:08.169Z,61.00
2018-04-16T17:29:08.174Z,38.50
2018-04-16T17:30:08.175Z,47.60
2018-04-16T17:31:08.225Z,31.60
2018-04-16T17:32:08.636Z,33.90
2018-04-16T17:33:08.184Z,35.20
2018-04-16T17:34:08.183Z,33.20
2018-04-16T17:35:08.183Z,33.20
2018-04-16T17:36:18.858Z,35.40
2018-04-16T17:37:08.185Z,35.00
2018-04-16T17:38:08.188Z,40.60
2018-04-16T17:39:08.188Z,34.10
2018-04-16T17:40:08.198Z,30.70
2018-04-16T17:41:08.241Z,29.60
2018-04-16T17:42:08.198Z,28.40
2018-04-16T17:43:08.197Z,27.60
2018-04-16T17:44:08.204Z,29.20
2018-04-16T17:45:08.202Z,30.60
2018-04-16T17:46:08.275Z,30.30
2018-04-16T17:47:08.207Z,30.50
2018-04-16T17:48:08.207Z,31.70
2018-04-16T17:49:08.208Z,32.50
2018-04-16T17:50:08.209Z,32.10
2018-04-16T17:51:08.220Z,31.50
2018-04-16T17:52:08.260Z,32.70
2018-04-16T17:53:08.766Z,33.80
2018-04-16T17:54:08.220Z,33.30
2018-04-16T17:55:08.225Z,33.40
2018-04-16T17:56:08.227Z,33.70
2018-04-16T17:57:29.391Z,37.00
2018-04-16T17:58:08.280Z,48.10
2018-04-16T17:59:08.269Z,65.10
2018-04-16T18:00:08.237Z,56.80
2018-04-16T18:01:08.230Z,49.00
2018-04-16T18:02:08.313Z,36.40
2018-04-16T18:03:08.231Z,39.70
2018-04-16T18:04:08.232Z,42.80
2018-04-16T18:05:08.238Z,50.20
2018-04-16T18:06:08.238Z,58.80
2018-04-16T18:07:13.355Z,53.10
2018-04-16T18:08:08.239Z,55.70
2018-04-16T18:09:08.238Z,46.50
2018-04-16T18:10:08.243Z,53.70
2018-04-16T18:11:08.243Z,58.40
2018-04-16T18:12:08.289Z,59.90
2018-04-16T18:13:08.337Z,73.20
2018-04-16T18:14:08.245Z,66.10
2018-04-16T18:15:08.250Z,68.70
2018-04-16T18:16:08.248Z,69.00
2018-04-16T18:17:08.326Z,62.70
2018-04-16T18:18:08.252Z,124.70
2018-04-16T18:19:08.250Z,155.60
2018-04-16T18:20:08.250Z,95.50
2018-04-16T18:21:08.255Z,48.30
2018-04-16T18:22:08.255Z,46.70
2018-04-16T18:27:43.249Z,70.00
2018-04-16T18:28:43.185Z,63.50
2018-04-16T18:29:43.198Z,42.00
2018-04-16T18:30:43.187Z,41.30
2018-04-16T18:31:43.195Z,42.10
2018-04-16T18:33:04.285Z,49.10
2018-04-16T18:33:43.190Z,55.00
2018-04-16T18:34:43.245Z,49.00
2018-04-16T18:35:43.208Z,57.70
2018-04-16T18:36:43.198Z,61.00
2018-04-16T18:37:43.883Z,64.80
2018-04-16T18:38:43.208Z,65.60
2018-04-16T18:39:43.213Z,77.60
2018-04-16T18:40:43.195Z,65.70
2018-04-16T18:41:43.200Z,83.00
2018-04-16T18:42:43.282Z,63.50
2018-04-16T18:43:43.199Z,70.80
2018-04-16T18:44:43.202Z,91.80
2018-04-16T18:45:43.195Z,82.80
2018-04-16T18:46:43.200Z,68.20
2018-04-16T18:47:48.319Z,70.30
2018-04-16T18:48:43.194Z,46.70
2018-04-16T18:49:43.211Z,40.00
2018-04-16T18:50:43.201Z,39.80
2018-04-16T18:51:43.204Z,35.50
2018-04-16T18:52:43.245Z,36.10
2018-04-16T18:53:43.199Z,35.70
2018-04-16T18:54:43.206Z,45.80
2018-04-16T18:55:43.215Z,52.90
2018-04-16T18:56:43.205Z,52.40
2018-04-16T18:57:43.260Z,51.60
2018-04-16T18:58:43.201Z,52.70
2018-04-16T18:59:43.763Z,48.10
2018-04-16T19:00:43.206Z,46.40
2018-04-16T19:01:43.208Z,45.70
2018-04-16T19:02:43.250Z,43.60
2018-04-16T19:03:43.203Z,43.60
2018-04-16T19:04:43.757Z,47.70
2018-04-16T19:05:43.214Z,53.00
2018-04-16T19:06:43.206Z,54.40
2018-04-16T19:07:43.398Z,49.50
2018-04-16T19:08:43.207Z,44.90
2018-04-16T19:09:43.203Z,42.10
2018-04-16T19:10:43.764Z,43.80
2018-04-16T19:11:43.211Z,43.30
2018-04-16T19:12:43.207Z,42.70
2018-04-16T19:13:53.822Z,45.10
2018-04-16T19:14:43.207Z,43.60
2018-04-16T19:15:43.276Z,46.10
2018-04-16T19:16:43.207Z,53.40
2018-04-16T19:17:43.211Z,49.30
2018-04-16T19:18:43.261Z,58.20
2018-04-16T19:19:43.204Z,56.10
2018-04-16T19:20:43.218Z,50.70
2018-04-16T19:21:43.204Z,49.50
2018-04-16T19:22:43.208Z,52.50
2018-04-16T19:23:43.497Z,44.40
2018-04-16T19:24:43.206Z,44.50
2018-04-16T19:25:43.268Z,41.30
2018-04-16T19:26:43.210Z,41.60
2018-04-16T19:27:43.204Z,40.70
2018-04-16T19:28:43.205Z,40.80
2018-04-16T19:29:43.281Z,41.10
2018-04-16T19:30:43.206Z,40.00
2018-04-16T19:31:43.205Z,40.60
2018-04-16T19:32:43.202Z,43.50
2018-04-16T19:33:43.201Z,47.60
2018-04-16T19:34:43.289Z,54.40
2018-04-16T19:35:43.215Z,51.90
2018-04-16T19:36:43.208Z,48.50
2018-04-16T19:37:43.205Z,53.40
2018-04-16T19:38:43.205Z,50.80
2018-04-16T19:39:43.253Z,62.80
2018-04-16T19:40:43.207Z,43.00